Time;durP1;ratioP1;P1;durP2;ratioP2;P2;SDS_P1;SDS_P2;PMS_P1;PMS_P2;Temp;Humidity;BMP_temperature;BMP_pressure;BME280_temperature;BME280_humidity;BME280_pressure;Samples;Min_cycle;Max_cycle;Signal;HPM_P1;HPM_P2
2021/12/02 00:02:00;;;;;;;;;;;;;;;-0.57;79.08;94786.97;6398331;27;19923;-64
2021/12/02 00:05:02;;;;;;;;;;;;;;;-0.47;79.42;94783.81;6397159;27;20315;-63
2021/12/02 00:08:08;;;;;;;;;;;;;;;-0.41;79.78;94769.72;6397060;27;19926;-62
2021/12/02 00:11:09;;;;;;;;;;;;;;;-0.38;80.31;94760.97;6397856;27;20008;-62
2021/12/02 00:14:13;;;;;;;;;;;;;;;-0.26;80.16;94760.25;6397779;27;19967;-63
2021/12/02 00:17:22;;;;;;;;;;;;;;;-0.05;79.88;94779.75;6397892;27;20383;-63
2021/12/02 00:23:50;;;;;;;;;;;;;;;-0.06;79.48;94808.25;6397830;27;19923;-64
2021/12/02 00:26:52;;;;;;;;;;;;;;;-0.01;78.63;94827.75;6397790;27;19923;-62
2021/12/02 00:29:55;;;;;;;;;;;;;;;0.01;78.64;94813.94;6396611;27;19923;-63
2021/12/02 00:32:57;;;;;;;;;;;;;;;0.26;76.93;94800.44;6397477;27;19923;-64
2021/12/02 00:36:02;;;;;;;;;;;;;;;0.26;76.96;94793.50;6396558;27;20392;-63
2021/12/02 00:39:14;;;;;;;;;;;;;;;0.24;76.39;94813.44;6396719;27;20406;-63
2021/12/02 00:42:15;;;;;;;;;;;;;;;0.27;76.61;94807.28;6397487;27;20363;-63
2021/12/02 00:45:16;;;;;;;;;;;;;;;-0.02;76.37;94813.19;6396201;27;19934;-63
2021/12/02 00:48:17;;;;;;;;;;;;;;;0.01;77.23;94803.59;6397209;27;19930;-63
2021/12/02 00:51:21;;;;;;;;;;;;;;;-0.08;77.86;94800.59;6397456;27;20392;-63
2021/12/02 00:54:25;;;;;;;;;;;;;;;-0.11;78.49;94790.44;6396383;27;19930;-63
2021/12/02 00:57:29;;;;;;;;;;;;;;;-0.07;78.49;94791.91;6398021;27;19930;-62
2021/12/02 01:00:33;;;;;;;;;;;;;;;0.09;78.66;94811.75;6397402;27;20018;-62
2021/12/02 01:03:37;;;;;;;;;;;;;;;-0.03;78.29;94842.56;6397194;27;19923;-63
2021/12/02 01:06:41;;;;;;;;;;;;;;;0.25;77.86;94884.94;6397205;27;19930;-63
2021/12/02 01:09:47;;;;;;;;;;;;;;;0.33;77.55;94880.19;6397806;27;19923;-63
2021/12/02 01:12:49;;;;;;;;;;;;;;;0.25;77.45;94861.66;6401451;27;19958;-63
2021/12/02 01:15:51;;;;;;;;;;;;;;;0.24;77.50;94851.44;6402072;27;19923;-63
2021/12/02 01:18:57;;;;;;;;;;;;;;;-0.06;78.47;94834.97;6401951;27;19919;-63
2021/12/02 01:21:58;;;;;;;;;;;;;;;0.18;78.22;94843.09;6401823;27;19923;-62
2021/12/02 01:24:59;;;;;;;;;;;;;;;0.21;78.08;94847.25;6401082;27;19922;-63
2021/12/02 01:28:00;;;;;;;;;;;;;;;0.21;77.93;94836.91;6401725;27;19923;-63
2021/12/02 01:31:01;;;;;;;;;;;;;;;0.34;77.43;94847.38;6401941;27;19923;-63
2021/12/02 01:34:08;;;;;;;;;;;;;;;0.10;77.78;94839.28;6401711;27;19923;-63
2021/12/02 01:37:11;;;;;;;;;;;;;;;0.11;78.52;94843.50;6400437;27;19930;-63
2021/12/02 01:40:12;;;;;;;;;;;;;;;0.05;78.39;94841.28;6401388;27;20060;-63
2021/12/02 01:43:17;;;;;;;;;;;;;;;0.09;78.97;94842.78;6401520;27;19927;-63
2021/12/02 01:46:19;;;;;;;;;;;;;;;0.23;78.91;94855.78;6400443;27;19930;-64
2021/12/02 01:49:22;;;;;;;;;;;;;;;0.21;78.95;94849.84;6400544;27;19930;-64
2021/12/02 01:52:31;;;;;;;;;;;;;;;0.21;78.90;94839.50;6401497;27;19930;-63
2021/12/02 01:55:34;;;;;;;;;;;;;;;0.06;79.51;94827.41;6401394;27;20280;-64
2021/12/02 01:58:46;;;;;;;;;;;;;;;0.07;80.02;94829.09;6401047;27;19923;-63
2021/12/02 02:01:51;;;;;;;;;;;;;;;-0.08;79.82;94836.78;6400023;27;19930;-63
2021/12/02 02:04:52;;;;;;;;;;;;;;;-0.11;80.65;94825.81;6400930;27;19923;-63
2021/12/02 02:08:05;;;;;;;;;;;;;;;-0.04;80.75;94833.09;6400712;27;19923;-64
2021/12/02 02:11:08;;;;;;;;;;;;;;;0.05;81.22;94841.28;6400704;27;19963;-64
2021/12/02 02:14:12;;;;;;;;;;;;;;;0.08;79.89;94835.94;6400599;27;19923;-63
2021/12/02 02:20:20;;;;;;;;;;;;;;;0.15;79.79;94842.44;6400799;27;20338;-63
2021/12/02 02:23:26;;;;;;;;;;;;;;;0.21;79.81;94857.59;6399622;27;19923;-63
2021/12/02 02:26:34;;;;;;;;;;;;;;;0.17;79.70;94856.09;6400467;27;20017;-63
2021/12/02 02:29:35;;;;;;;;;;;;;;;0.13;80.57;94862.38;6399251;27;19923;-63
2021/12/02 02:32:37;;;;;;;;;;;;;;;0.28;80.03;94866.66;6400147;27;19923;-63
2021/12/02 02:35:41;;;;;;;;;;;;;;;0.42;79.85;94866.72;6400372;27;20306;-64
2021/12/02 02:38:53;;;;;;;;;;;;;;;0.41;79.88;94859.88;6399435;27;19923;-68
2021/12/02 02:42:01;;;;;;;;;;;;;;;0.47;80.14;94857.88;6400122;27;20400;-64
2021/12/02 02:45:03;;;;;;;;;;;;;;;0.57;79.61;94864.19;6381488;27;19929;-66
2021/12/02 02:48:05;;;;;;;;;;;;;;;0.41;79.54;94872.00;6399513;27;19930;-63
2021/12/02 02:51:07;;;;;;;;;;;;;;;0.37;79.53;94867.94;6399404;27;19923;-64
2021/12/02 02:54:10;;;;;;;;;;;;;;;0.18;80.11;94850.00;6398391;27;19919;-63
2021/12/02 02:57:16;;;;;;;;;;;;;;;0.21;80.37;94867.94;6399419;27;19930;-63
2021/12/02 03:00:22;;;;;;;;;;;;;;;0.18;80.47;94862.94;6399133;27;19922;-63
2021/12/02 03:09:54;;;;;;;;;;;;;;;0.18;80.62;94884.47;6398219;27;19939;-63
2021/12/02 03:13:09;;;;;;;;;;;;;;;0.33;80.29;94893.13;6399276;27;19923;-63
2021/12/02 03:19:30;;;;;;;;;;;;;;;0.34;80.76;94899.97;6397958;27;19923;-62
2021/12/02 03:22:35;;;;;;;;;;;;;;;0.49;81.46;94897.44;6398952;27;19927;-62
2021/12/02 03:25:36;;;;;;;;;;;;;;;0.39;80.99;94903.09;6398775;27;20395;-63
2021/12/02 03:28:39;;;;;;;;;;;;;;;0.59;81.34;94914.91;6398514;27;19923;-64
2021/12/02 03:31:43;;;;;;;;;;;;;;;0.57;81.46;94923.72;6398518;27;20415;-63
2021/12/02 03:34:44;;;;;;;;;;;;;;;0.56;81.48;94922.03;6398020;27;19926;-63
2021/12/02 03:37:45;;;;;;;;;;;;;;;0.51;81.44;94935.25;6398202;27;19930;-63
2021/12/02 03:40:46;;;;;;;;;;;;;;;0.75;81.12;94939.94;6398248;27;19927;-63
2021/12/02 03:43:49;;;;;;;;;;;;;;;0.75;80.80;94940.78;6398280;27;19929;-63
2021/12/02 03:46:53;;;;;;;;;;;;;;;0.73;81.20;94928.84;6398441;27;19919;-63
2021/12/02 03:49:54;;;;;;;;;;;;;;;0.86;81.02;94933.22;6397588;27;19922;-64
2021/12/02 03:52:57;;;;;;;;;;;;;;;0.60;80.75;94931.31;6398293;27;20013;-63
2021/12/02 03:56:02;;;;;;;;;;;;;;;0.56;81.17;94930.63;6398267;27;19923;-63
2021/12/02 03:59:03;;;;;;;;;;;;;;;0.76;81.37;94932.06;6396905;27;20303;-64
2021/12/02 04:02:07;;;;;;;;;;;;;;;0.73;80.99;94916.72;6397892;27;19927;-63
2021/12/02 04:05:08;;;;;;;;;;;;;;;0.51;81.48;94926.63;6397048;27;20399;-65
2021/12/02 04:08:11;;;;;;;;;;;;;;;0.55;81.65;94933.31;6397790;27;19923;-63
2021/12/02 04:14:36;;;;;;;;;;;;;;;0.77;81.40;94933.75;6397984;27;19923;-62
2021/12/02 04:17:43;;;;;;;;;;;;;;;0.84;81.66;94940.22;6398091;27;19945;-63
2021/12/02 04:20:45;;;;;;;;;;;;;;;0.92;81.19;94944.97;6397749;27;20344;-63
2021/12/02 04:23:48;;;;;;;;;;;;;;;0.89;81.30;94948.56;6397462;27;19923;-64
2021/12/02 04:26:55;;;;;;;;;;;;;;;0.94;81.32;94939.72;6397484;27;19923;-63
2021/12/02 04:29:56;;;;;;;;;;;;;;;0.94;81.43;94934.56;6396459;27;19923;-62
2021/12/02 04:32:57;;;;;;;;;;;;;;;0.90;81.40;94939.88;6396329;27;20379;-63
2021/12/02 04:35:59;;;;;;;;;;;;;;;0.98;81.46;94956.75;6396518;27;19923;-62
2021/12/02 04:39:06;;;;;;;;;;;;;;;0.94;81.12;94957.84;6397147;27;19930;-63
2021/12/02 04:42:11;;;;;;;;;;;;;;;1.06;81.27;94964.91;6396997;27;19942;-65
2021/12/02 04:45:13;;;;;;;;;;;;;;;1.09;81.30;94975.09;6396992;27;19930;-64
2021/12/02 04:48:14;;;;;;;;;;;;;;;1.05;81.21;94978.78;6397250;27;19923;-64
2021/12/02 04:51:17;;;;;;;;;;;;;;;1.32;80.98;94977.16;6397727;27;19923;-64
2021/12/02 04:54:18;;;;;;;;;;;;;;;1.31;80.34;94975.50;6396402;27;19929;-63
2021/12/02 04:57:21;;;;;;;;;;;;;;;1.49;80.08;94977.94;6396143;27;19961;-64
2021/12/02 05:00:25;;;;;;;;;;;;;;;1.56;80.00;94987.03;6397222;27;19923;-64
2021/12/02 05:03:27;;;;;;;;;;;;;;;1.61;79.70;94997.91;6397174;27;19962;-63
2021/12/02 05:06:28;;;;;;;;;;;;;;;1.77;79.23;95001.28;6396272;27;19923;-63
2021/12/02 05:09:30;;;;;;;;;;;;;;;1.90;78.44;95003.16;6397285;27;19923;-63
2021/12/02 05:12:33;;;;;;;;;;;;;;;2.15;78.03;95008.50;6397065;27;20023;-64
2021/12/02 05:15:34;;;;;;;;;;;;;;;2.50;76.48;95002.88;6395200;27;19930;-64
2021/12/02 05:18:35;;;;;;;;;;;;;;;2.77;74.91;95005.47;6396136;27;19956;-63
2021/12/02 05:21:37;;;;;;;;;;;;;;;2.76;74.30;95009.00;6396595;27;20029;-63
2021/12/02 05:24:38;;;;;;;;;;;;;;;2.76;74.02;95003.81;6396027;27;20423;-63
2021/12/02 05:27:39;;;;;;;;;;;;;;;2.74;74.43;95010.84;6396178;27;19919;-64
2021/12/02 05:30:40;;;;;;;;;;;;;;;2.77;74.39;95004.63;6396680;27;19934;-64
2021/12/02 05:33:41;;;;;;;;;;;;;;;2.77;74.67;95004.63;6377737;27;20035;-63
2021/12/02 05:36:43;;;;;;;;;;;;;;;2.98;74.23;95013.66;6396001;27;19923;-63
2021/12/02 05:39:44;;;;;;;;;;;;;;;3.26;73.97;95017.06;6396749;27;20307;-63
2021/12/02 05:42:45;;;;;;;;;;;;;;;3.55;72.66;94997.75;6396808;27;19923;-64
2021/12/02 05:45:46;;;;;;;;;;;;;;;3.57;72.26;95000.25;6395783;27;19923;-64
2021/12/02 05:48:50;;;;;;;;;;;;;;;3.69;71.40;95007.22;6396560;27;19923;-64
2021/12/02 05:51:54;;;;;;;;;;;;;;;3.78;70.69;95008.38;6396673;27;19923;-63
2021/12/02 05:54:56;;;;;;;;;;;;;;;3.85;70.85;95019.19;6396150;27;19923;-63
2021/12/02 05:57:59;;;;;;;;;;;;;;;3.96;70.19;95021.88;6398870;27;19922;-64
2021/12/02 06:01:00;;;;;;;;;;;;;;;4.03;69.35;95031.78;6399758;27;19923;-63
2021/12/02 06:04:02;;;;;;;;;;;;;;;4.16;68.36;95031.78;6400877;27;20343;-62
2021/12/02 06:07:06;;;;;;;;;;;;;;;4.22;67.89;95022.72;6400966;27;19979;-63
2021/12/02 06:10:10;;;;;;;;;;;;;;;4.19;67.83;95043.72;6400883;27;20312;-64
2021/12/02 06:13:14;;;;;;;;;;;;;;;4.09;68.11;95037.50;6400775;27;19923;-63
2021/12/02 06:16:17;;;;;;;;;;;;;;;3.97;68.88;95047.81;6400749;27;19927;-63
2021/12/02 06:19:21;;;;;;;;;;;;;;;4.07;68.34;95070.63;6400554;27;19923;-64
2021/12/02 06:22:22;;;;;;;;;;;;;;;3.97;69.20;95075.63;6399945;27;19976;-64
2021/12/02 06:28:27;;;;;;;;;;;;;;;4.04;68.37;95092.47;6399107;27;19922;-63
2021/12/02 06:31:28;;;;;;;;;;;;;;;3.92;68.34;95104.53;6399314;27;20308;-63
2021/12/02 06:34:29;;;;;;;;;;;;;;;3.87;68.41;95095.38;6400254;27;19930;-63
2021/12/02 06:37:30;;;;;;;;;;;;;;;3.94;67.92;95089.66;6399964;27;19930;-63
2021/12/02 06:40:37;;;;;;;;;;;;;;;4.13;67.36;95096.22;6400184;27;19930;-63
2021/12/02 06:43:38;;;;;;;;;;;;;;;4.24;66.64;95088.50;6399174;27;20002;-63
2021/12/02 06:46:40;;;;;;;;;;;;;;;4.26;66.10;95091.84;6399098;27;19934;-63
2021/12/02 06:49:44;;;;;;;;;;;;;;;4.23;66.01;95092.06;6400038;27;19968;-63
2021/12/02 06:52:49;;;;;;;;;;;;;;;4.21;66.11;95083.53;6399100;27;19927;-63
2021/12/02 06:55:50;;;;;;;;;;;;;;;4.20;65.78;95097.47;6399837;27;19922;-63
2021/12/02 06:58:54;;;;;;;;;;;;;;;4.12;66.26;95100.59;6399759;27;19931;-63
2021/12/02 07:02:00;;;;;;;;;;;;;;;3.94;66.79;95107.88;6399544;27;19923;-63
2021/12/02 07:05:01;;;;;;;;;;;;;;;3.40;68.47;95107.97;6399194;27;19923;-62
2021/12/02 07:08:05;;;;;;;;;;;;;;;3.82;69.40;95116.47;6398874;27;20311;-63
2021/12/02 07:11:10;;;;;;;;;;;;;;;6.72;62.93;95122.63;6398276;27;19929;-63
2021/12/02 07:14:15;;;;;;;;;;;;;;;10.30;53.96;95127.41;6399237;27;20415;-63
2021/12/02 07:17:18;;;;;;;;;;;;;;;13.04;47.16;95122.81;6398980;27;19923;-62
2021/12/02 07:20:19;;;;;;;;;;;;;;;14.73;41.64;95136.78;6398318;27;19923;-63
2021/12/02 07:23:21;;;;;;;;;;;;;;;16.60;38.76;95137.69;6397984;27;20431;-66
2021/12/02 07:26:25;;;;;;;;;;;;;;;17.14;37.22;95141.22;6398702;27;19923;-63
2021/12/02 07:29:28;;;;;;;;;;;;;;;16.21;35.58;95152.94;6398773;27;19922;-63
2021/12/02 07:32:33;;;;;;;;;;;;;;;13.42;37.64;95141.88;6397744;27;20311;-62
2021/12/02 07:35:34;;;;;;;;;;;;;;;10.73;42.59;95136.59;6397630;27;19949;-63
2021/12/02 07:38:38;;;;;;;;;;;;;;;8.45;48.44;95152.34;6398654;27;19923;-63
2021/12/02 07:41:39;;;;;;;;;;;;;;;8.08;50.76;95160.59;6398502;27;19937;-63
2021/12/02 07:44:41;;;;;;;;;;;;;;;10.58;46.05;95159.03;6398526;27;19930;-63
2021/12/02 07:47:42;;;;;;;;;;;;;;;11.76;44.71;95179.47;6397731;27;19926;-63
2021/12/02 07:50:43;;;;;;;;;;;;;;;12.84;42.32;95172.38;6397358;27;19946;-63
2021/12/02 07:53:48;;;;;;;;;;;;;;;14.70;40.82;95175.00;6397300;27;19923;-65
2021/12/02 07:56:52;;;;;;;;;;;;;;;18.06;35.37;95181.53;6397569;27;19923;-64
2021/12/02 07:59:55;;;;;;;;;;;;;;;21.17;30.11;95194.22;6398065;27;19927;-63
2021/12/02 08:03:00;;;;;;;;;;;;;;;23.24;29.22;95195.09;6398031;27;19923;-63
2021/12/02 08:06:02;;;;;;;;;;;;;;;24.64;27.35;95193.59;6397525;27;20401;-62
2021/12/02 08:09:06;;;;;;;;;;;;;;;25.25;26.98;95195.19;6397483;27;19929;-63
2021/12/02 08:12:07;;;;;;;;;;;;;;;25.24;25.11;95190.03;6396281;27;19960;-63
2021/12/02 08:15:09;;;;;;;;;;;;;;;25.87;24.79;95189.34;6396788;27;19923;-63
2021/12/02 08:18:10;;;;;;;;;;;;;;;26.70;24.47;95195.38;6397350;27;19923;-63
2021/12/02 08:21:13;;;;;;;;;;;;;;;26.62;22.96;95206.53;6395932;27;19923;-63
2021/12/02 08:24:22;;;;;;;;;;;;;;;26.41;22.71;95214.22;6397438;27;19923;-63
2021/12/02 08:27:23;;;;;;;;;;;;;;;27.09;22.85;95212.53;6396620;27;19923;-64
2021/12/02 08:30:32;;;;;;;;;;;;;;;26.86;21.31;95220.75;6379295;27;19923;-64
2021/12/02 08:33:36;;;;;;;;;;;;;;;24.12;20.46;95220.09;6397468;27;20400;-64
2021/12/02 08:36:52;;;;;;;;;;;;;;;23.90;22.86;95227.75;6397336;27;20327;-63
2021/12/02 08:39:55;;;;;;;;;;;;;;;24.49;21.40;95230.84;6396397;27;20040;-64
2021/12/02 08:42:56;;;;;;;;;;;;;;;23.65;20.94;95217.84;6397392;27;20095;-64
2021/12/02 08:45:57;;;;;;;;;;;;;;;23.00;20.22;95203.94;6396556;27;20392;-64
2021/12/02 08:48:58;;;;;;;;;;;;;;;22.19;21.64;95208.94;6396296;27;19930;-64
2021/12/02 08:52:05;;;;;;;;;;;;;;;21.52;21.70;95200.22;6397227;27;19923;-63
2021/12/02 08:55:09;;;;;;;;;;;;;;;21.10;22.21;95205.97;6396889;27;19929;-64
2021/12/02 08:58:10;;;;;;;;;;;;;;;20.79;22.70;95220.75;6378142;27;20413;-64
2021/12/02 09:01:14;;;;;;;;;;;;;;;20.46;21.07;95216.13;6397023;27;20423;-62
2021/12/02 09:04:15;;;;;;;;;;;;;;;17.31;25.19;95227.75;6395764;27;20391;-64
2021/12/02 09:07:20;;;;;;;;;;;;;;;13.31;30.54;95214.28;6397020;27;19923;-66
2021/12/02 09:10:25;;;;;;;;;;;;;;;10.40;35.46;95205.44;6396563;27;19938;-63
2021/12/02 09:13:27;;;;;;;;;;;;;;;8.73;39.04;95223.44;6396207;27;19930;-63
2021/12/02 09:16:33;;;;;;;;;;;;;;;7.53;41.61;95227.91;6396719;27;19923;-64
2021/12/02 09:19:37;;;;;;;;;;;;;;;6.87;43.92;95234.78;6397000;27;19927;-64
2021/12/02 09:22:42;;;;;;;;;;;;;;;6.44;44.89;95231.03;6396858;27;20374;-63
2021/12/02 09:25:43;;;;;;;;;;;;;;;6.27;45.16;95234.06;6395619;27;20062;-62
2021/12/02 09:28:52;;;;;;;;;;;;;;;5.96;46.41;95248.53;6396349;27;19922;-63
2021/12/02 09:31:53;;;;;;;;;;;;;;;5.83;46.39;95238.97;6399006;27;19952;-64
2021/12/02 09:34:54;;;;;;;;;;;;;;;5.51;47.23;95246.44;6400280;27;19930;-64
2021/12/02 09:38:00;;;;;;;;;;;;;;;5.00;48.43;95254.38;6401518;27;19923;-65
2021/12/02 09:41:02;;;;;;;;;;;;;;;4.61;49.30;95266.53;6400647;27;19930;-63
2021/12/02 09:44:04;;;;;;;;;;;;;;;4.47;50.22;95270.09;6401495;27;19923;-63
2021/12/02 09:47:07;;;;;;;;;;;;;;;4.32;50.36;95273.69;6400844;27;20009;-63
2021/12/02 09:50:14;;;;;;;;;;;;;;;4.53;50.43;95270.59;6400894;27;20409;-64
2021/12/02 09:53:19;;;;;;;;;;;;;;;4.15;50.82;95281.78;6401039;27;20424;-63
2021/12/02 09:56:29;;;;;;;;;;;;;;;3.76;51.45;95288.59;6400979;27;20043;-63
2021/12/02 10:02:53;;;;;;;;;;;;;;;3.17;52.39;95290.53;6400208;27;19923;-63
2021/12/02 10:06:03;;;;;;;;;;;;;;;3.03;52.03;95294.81;6400719;27;20299;-63
2021/12/02 10:09:13;;;;;;;;;;;;;;;2.79;51.63;95304.06;6381630;27;19923;-64
2021/12/02 10:12:20;;;;;;;;;;;;;;;2.84;50.89;95322.81;6399654;27;19923;-63
2021/12/02 10:15:28;;;;;;;;;;;;;;;2.69;50.07;95325.41;6400866;27;19957;-64
2021/12/02 10:18:41;;;;;;;;;;;;;;;2.46;50.44;95326.75;6400608;27;19931;-63
2021/12/02 10:21:57;;;;;;;;;;;;;;;2.46;49.75;95336.25;6399004;27;19927;-64
2021/12/02 10:25:00;;;;;;;;;;;;;;;2.09;50.71;95334.91;6400200;27;19945;-61
2021/12/02 10:28:08;;;;;;;;;;;;;;;1.84;51.13;95338.03;6399691;27;20018;-64
2021/12/02 10:31:16;;;;;;;;;;;;;;;1.75;51.06;95353.19;6399244;27;19923;-64
2021/12/02 10:34:20;;;;;;;;;;;;;;;1.74;50.84;95354.09;6400390;27;19923;-64
2021/12/02 10:37:23;;;;;;;;;;;;;;;1.59;50.74;95359.31;6399120;27;19931;-65
2021/12/02 10:40:25;;;;;;;;;;;;;;;1.41;51.48;95374.06;6399394;27;19930;-65
2021/12/02 10:43:31;;;;;;;;;;;;;;;1.28;52.03;95379.88;6399469;27;19923;-65
2021/12/02 10:46:38;;;;;;;;;;;;;;;1.18;52.44;95383.88;6399638;27;20333;-65
2021/12/02 10:49:59;;;;;;;;;;;;;;;1.09;52.26;95399.88;6398891;27;19927;-64
2021/12/02 10:53:07;;;;;;;;;;;;;;;0.91;52.99;95404.25;6398936;27;19930;-66
2021/12/02 10:56:10;;;;;;;;;;;;;;;0.79;53.27;95403.13;6398565;27;19923;-65
2021/12/02 10:59:23;;;;;;;;;;;;;;;0.77;52.92;95420.47;6399049;27;19926;-63
2021/12/02 11:02:28;;;;;;;;;;;;;;;0.69;53.23;95419.19;6399501;27;19923;-65
2021/12/02 11:05:33;;;;;;;;;;;;;;;0.72;53.75;95430.22;6398618;27;20269;-64
2021/12/02 11:08:37;;;;;;;;;;;;;;;0.53;53.46;95438.03;6398775;27;19922;-65
2021/12/02 11:11:38;;;;;;;;;;;;;;;0.51;54.28;95444.19;6399277;27;19930;-64
2021/12/02 11:14:52;;;;;;;;;;;;;;;0.55;54.10;95450.91;6399341;27;20452;-66
2021/12/02 11:17:54;;;;;;;;;;;;;;;0.36;54.60;95451.78;6399269;27;20014;-63
2021/12/02 11:20:59;;;;;;;;;;;;;;;0.30;55.48;95457.25;6397989;27;19930;-65
2021/12/02 11:24:04;;;;;;;;;;;;;;;0.23;55.76;95476.56;6399005;27;19923;-66
2021/12/02 11:27:11;;;;;;;;;;;;;;;-0.07;56.11;95479.63;6398883;27;19923;-67
2021/12/02 11:30:15;;;;;;;;;;;;;;;-0.16;56.21;95482.66;6398767;27;20384;-64
2021/12/02 11:33:19;;;;;;;;;;;;;;;-0.14;56.01;95483.44;6398116;27;19923;-63
2021/12/02 11:36:22;;;;;;;;;;;;;;;-0.20;56.36;95498.34;6397658;27;20277;-64
2021/12/02 11:39:23;;;;;;;;;;;;;;;-0.34;55.78;95501.53;6398339;27;19930;-66
2021/12/02 11:42:42;;;;;;;;;;;;;;;-0.59;56.15;95497.47;6398642;27;19934;-65
2021/12/02 11:45:46;;;;;;;;;;;;;;;-0.64;56.78;95504.56;6398174;27;19930;-65
2021/12/02 11:48:47;;;;;;;;;;;;;;;-0.62;56.46;95502.75;6397442;27;20315;-64
2021/12/02 11:51:48;;;;;;;;;;;;;;;-0.77;56.28;95508.56;6397068;27;20412;-63
2021/12/02 11:54:54;;;;;;;;;;;;;;;-0.88;56.89;95510.75;6398195;27;20418;-63
2021/12/02 11:57:56;;;;;;;;;;;;;;;-0.82;56.55;95506.19;6397176;27;19930;-63
2021/12/02 12:00:58;;;;;;;;;;;;;;;-0.79;56.30;95515.53;6397931;27;19930;-64
2021/12/02 12:04:01;;;;;;;;;;;;;;;-0.76;56.05;95525.75;6398190;27;19923;-65
2021/12/02 12:07:10;;;;;;;;;;;;;;;-0.76;55.68;95533.50;6396832;27;19923;-64
2021/12/02 12:10:21;;;;;;;;;;;;;;;-0.98;55.53;95542.13;6397628;27;19923;-64
2021/12/02 12:13:23;;;;;;;;;;;;;;;-0.98;56.17;95539.53;6396910;27;19923;-65
2021/12/02 12:16:32;;;;;;;;;;;;;;;-1.04;55.91;95547.53;6396660;27;20376;-65
2021/12/02 12:19:43;;;;;;;;;;;;;;;-1.11;55.79;95553.84;6397563;27;20010;-63
2021/12/02 12:22:47;;;;;;;;;;;;;;;-1.25;56.71;95556.97;6397466;27;20321;-64
2021/12/02 12:26:06;;;;;;;;;;;;;;;-1.31;56.90;95569.28;6397502;27;19923;-64
2021/12/02 12:29:09;;;;;;;;;;;;;;;-1.47;57.25;95575.03;6396833;27;20136;-65
2021/12/02 12:32:35;;;;;;;;;;;;;;;-1.40;56.71;95581.63;6396396;27;20036;-63
2021/12/02 12:39:33;;;;;;;;;;;;;;;-1.54;56.31;95594.22;6396463;27;19923;-65
2021/12/02 12:42:35;;;;;;;;;;;;;;;-1.50;56.29;95600.97;6341741;27;19941;-65
2021/12/02 12:45:44;;;;;;;;;;;;;;;-1.67;56.30;95608.47;6397659;27;19929;-64
2021/12/02 12:48:47;;;;;;;;;;;;;;;-1.56;56.18;95610.66;6396209;27;19923;-64
2021/12/02 12:51:53;;;;;;;;;;;;;;;-1.90;56.96;95612.72;6396417;27;19923;-64
2021/12/02 12:55:16;;;;;;;;;;;;;;;-1.93;56.59;95633.47;6397116;27;19927;-64
2021/12/02 12:58:18;;;;;;;;;;;;;;;-2.18;57.66;95630.94;6397325;27;19923;-64
2021/12/02 13:01:24;;;;;;;;;;;;;;;-2.12;57.22;95632.47;6397356;27;20017;-64
2021/12/02 13:04:33;;;;;;;;;;;;;;;-2.22;57.69;95637.06;6397177;27;20357;-62
2021/12/02 13:07:34;;;;;;;;;;;;;;;-2.20;57.19;95640.44;6400005;27;20427;-65
2021/12/02 13:10:47;;;;;;;;;;;;;;;-2.31;57.56;95648.53;6402155;27;19923;-63
2021/12/02 13:13:49;;;;;;;;;;;;;;;-2.35;57.52;95662.44;6402307;27;19923;-64
2021/12/02 13:16:52;;;;;;;;;;;;;;;-2.57;57.92;95664.88;6402234;27;20459;-64
2021/12/02 13:19:59;;;;;;;;;;;;;;;-2.69;58.54;95669.56;6401932;27;19922;-65
2021/12/02 13:23:12;;;;;;;;;;;;;;;-2.63;58.73;95666.78;6383691;27;20303;-64
2021/12/02 13:26:17;;;;;;;;;;;;;;;-2.72;58.46;95673.94;6401456;27;19926;-67
2021/12/02 13:29:25;;;;;;;;;;;;;;;-2.84;58.82;95669.16;6401782;27;19923;-64
2021/12/02 13:32:26;;;;;;;;;;;;;;;-2.94;58.51;95680.66;6401869;27;19976;-64
2021/12/02 13:35:27;;;;;;;;;;;;;;;-3.09;59.02;95688.81;6401949;27;19930;-64
2021/12/02 13:38:28;;;;;;;;;;;;;;;-3.20;59.12;95697.72;6401032;27;19923;-65
2021/12/02 13:41:36;;;;;;;;;;;;;;;-3.30;59.28;95686.00;6401604;27;20311;-64
2021/12/02 13:44:45;;;;;;;;;;;;;;;-3.39;59.28;95687.13;6401591;27;20292;-65
2021/12/02 13:47:46;;;;;;;;;;;;;;;-3.42;59.62;95696.66;6400750;27;19923;-63
2021/12/02 13:50:50;;;;;;;;;;;;;;;-3.37;59.51;95697.34;6400426;27;19929;-63
2021/12/02 13:53:53;;;;;;;;;;;;;;;-3.34;59.48;95699.00;6401362;27;19927;-64
2021/12/02 13:56:58;;;;;;;;;;;;;;;-3.30;59.21;95700.59;6401491;27;19946;-63
2021/12/02 14:00:22;;;;;;;;;;;;;;;-3.31;58.95;95710.06;6399907;27;19930;-64
2021/12/02 14:03:25;;;;;;;;;;;;;;;-3.30;59.20;95718.59;6369016;27;19922;-64
2021/12/02 14:06:29;;;;;;;;;;;;;;;-3.37;59.45;95715.34;6400951;27;19923;-64
2021/12/02 14:09:42;;;;;;;;;;;;;;;-3.36;59.20;95722.19;6399994;27;20311;-65
2021/12/02 14:12:45;;;;;;;;;;;;;;;-3.41;59.25;95718.91;6399679;27;19923;-63
2021/12/02 14:15:48;;;;;;;;;;;;;;;-3.55;59.55;95731.31;6399667;27;19930;-64
2021/12/02 14:18:51;;;;;;;;;;;;;;;-3.62;59.68;95717.81;6398303;27;20407;-64
2021/12/02 14:21:52;;;;;;;;;;;;;;;-3.67;60.11;95727.38;6400382;27;20376;-63
2021/12/02 14:25:01;;;;;;;;;;;;;;;-3.58;59.41;95721.13;6399989;27;20462;-64
2021/12/02 14:28:13;;;;;;;;;;;;;;;-3.55;59.31;95726.19;6400031;27;20009;-64
2021/12/02 14:31:23;;;;;;;;;;;;;;;-3.56;59.02;95725.34;6399830;27;20308;-63
2021/12/02 14:34:26;;;;;;;;;;;;;;;-3.63;59.18;95736.66;6399608;27;19922;-65
2021/12/02 14:37:33;;;;;;;;;;;;;;;-3.75;59.03;95745.56;6399327;27;20291;-63
2021/12/02 14:40:45;;;;;;;;;;;;;;;-3.84;59.37;95743.25;6399416;27;19929;-66
2021/12/02 14:43:53;;;;;;;;;;;;;;;-3.97;59.33;95750.41;6381283;27;19923;-64
2021/12/02 14:46:57;;;;;;;;;;;;;;;-4.08;59.55;95753.28;6398419;27;19935;-65
2021/12/02 14:50:09;;;;;;;;;;;;;;;-3.98;59.66;95756.44;6399562;27;19923;-64
2021/12/02 14:53:25;;;;;;;;;;;;;;;-4.04;59.38;95751.47;6399624;27;19930;-64
2021/12/02 14:56:34;;;;;;;;;;;;;;;-4.22;59.46;95755.31;6398281;27;19919;-64
2021/12/02 14:59:36;;;;;;;;;;;;;;;-4.32;59.91;95764.16;6399509;27;19930;-64
2021/12/02 15:02:38;;;;;;;;;;;;;;;-4.41;60.02;95761.81;6397835;27;20421;-65
2021/12/02 15:05:45;;;;;;;;;;;;;;;-4.44;59.97;95759.34;6399581;27;19923;-64
2021/12/02 15:08:48;;;;;;;;;;;;;;;-4.52;60.43;95760.34;6398264;27;19964;-65
2021/12/02 15:11:49;;;;;;;;;;;;;;;-4.47;60.09;95772.22;6398878;27;19923;-65
2021/12/02 15:14:53;;;;;;;;;;;;;;;-4.33;59.96;95777.84;6398245;27;19923;-64
2021/12/02 15:17:56;;;;;;;;;;;;;;;-3.92;58.71;95776.00;6398381;27;20415;-64
2021/12/02 15:21:00;;;;;;;;;;;;;;;-3.77;58.28;95787.59;6398828;27;19931;-64
2021/12/02 15:24:07;;;;;;;;;;;;;;;-3.99;58.75;95779.59;6397797;27;19923;-65
2021/12/02 15:27:10;;;;;;;;;;;;;;;-4.15;58.89;95787.69;6398744;27;19919;-64
2021/12/02 15:30:13;;;;;;;;;;;;;;;-4.02;59.04;95787.38;6397520;27;19922;-64
2021/12/02 15:33:32;;;;;;;;;;;;;;;-3.95;58.28;95794.06;6398879;27;19927;-64
2021/12/02 15:36:35;;;;;;;;;;;;;;;-3.97;58.58;95803.53;6397547;27;20013;-64
2021/12/02 15:39:44;;;;;;;;;;;;;;;-4.08;58.54;95804.66;6397860;27;19930;-65
2021/12/02 15:42:54;;;;;;;;;;;;;;;-4.15;58.87;95813.38;6398314;27;19930;-64
2021/12/02 15:46:00;;;;;;;;;;;;;;;-4.05;58.81;95814.00;6398097;27;19919;-65
2021/12/02 15:49:07;;;;;;;;;;;;;;;-4.24;59.05;95818.75;6380224;27;20410;-64
2021/12/02 15:52:11;;;;;;;;;;;;;;;-4.39;59.50;95824.22;6398216;27;20427;-65
2021/12/02 15:55:15;;;;;;;;;;;;;;;-4.56;59.92;95824.63;6398203;27;19964;-64
2021/12/02 15:58:21;;;;;;;;;;;;;;;-4.68;60.11;95823.16;6398019;27;19927;-65
2021/12/02 16:01:38;;;;;;;;;;;;;;;-4.71;60.38;95825.81;6396988;27;19923;-64
2021/12/02 16:04:49;;;;;;;;;;;;;;;-4.65;60.61;95817.97;6398114;27;19931;-64
2021/12/02 16:07:55;;;;;;;;;;;;;;;-4.36;60.27;95844.69;6397596;27;19923;-65
2021/12/02 16:14:15;;;;;;;;;;;;;;;-4.47;59.68;95847.53;6398076;27;19927;-63
2021/12/02 16:17:19;;;;;;;;;;;;;;;-4.60;60.27;95864.91;6396741;27;19930;-65
2021/12/02 16:20:23;;;;;;;;;;;;;;;-4.64;60.64;95865.88;6397572;27;19923;-66
2021/12/02 16:23:27;;;;;;;;;;;;;;;-4.74;60.68;95869.50;6397902;27;19923;-65
2021/12/02 16:26:31;;;;;;;;;;;;;;;-4.87;60.75;95868.94;6396685;27;19992;-64
2021/12/02 16:29:33;;;;;;;;;;;;;;;-4.87;61.19;95883.47;6397792;27;19923;-65
2021/12/02 16:32:35;;;;;;;;;;;;;;;-4.63;60.97;95877.81;6397469;27;19930;-64
2021/12/02 16:35:39;;;;;;;;;;;;;;;-4.43;61.00;95873.97;6397487;27;19927;-66
2021/12/02 16:38:57;;;;;;;;;;;;;;;-4.26;60.40;95887.28;6396974;27;19941;-65
2021/12/02 16:41:58;;;;;;;;;;;;;;;-4.19;60.41;95891.41;6396960;27;19930;-66